Time;durP1;ratioP1;P1;durP2;ratioP2;P2;SDS_P1;SDS_P2;PMS_P1;PMS_P2;Temp;Humidity;BMP_temperature;BMP_pressure;BME280_temperature;BME280_humidity;BME280_pressure;Samples;Min_cycle;Max_cycle;Signal;HPM_P1;HPM_P2
2022/02/23 00:01:10;;;;;;;13.40;3.88;;;6.40;84.40;;;;;;4955965;28;20039;-76
2022/02/23 00:03:36;;;;;;;17.17;5.65;;;6.40;84.40;;;;;;4945684;28;20379;-76
2022/02/23 00:06:02;;;;;;;11.13;4.47;;;6.40;84.30;;;;;;4946433;28;20502;-76
2022/02/23 00:08:28;;;;;;;17.80;5.20;;;6.40;84.30;;;;;;4951246;28;20085;-76
2022/02/23 00:10:54;;;;;;;16.30;6.05;;;6.40;84.20;;;;;;4942930;28;20066;-76
2022/02/23 00:13:20;;;;;;;15.18;5.40;;;6.40;84.10;;;;;;4946110;28;20482;-76
2022/02/23 00:15:45;;;;;;;13.23;4.85;;;6.40;83.60;;;;;;4946991;28;20524;-76
2022/02/23 00:18:14;;;;;;;14.23;4.28;;;6.40;83.50;;;;;;4943971;28;20050;-76
2022/02/23 00:20:41;;;;;;;16.08;5.07;;;6.40;83.30;;;;;;4950510;28;20035;-76
2022/02/23 00:23:07;;;;;;;12.52;3.97;;;6.30;83.40;;;;;;4936708;28;20062;-76
2022/02/23 00:25:33;;;;;;;13.40;4.35;;;6.30;83.30;;;;;;4945638;28;20031;-75
2022/02/23 00:27:59;;;;;;;15.15;4.72;;;6.20;83.40;;;;;;4946192;28;20042;-76
2022/02/23 00:30:25;;;;;;;14.05;4.43;;;6.20;83.50;;;;;;4959238;28;20039;-76
2022/02/23 00:32:51;;;;;;;11.85;3.88;;;6.20;83.50;;;;;;4956774;28;20554;-76
2022/02/23 00:35:16;;;;;;;14.63;4.22;;;6.20;83.60;;;;;;4949918;28;20045;-75
2022/02/23 00:37:43;;;;;;;15.65;5.10;;;6.10;83.50;;;;;;4945475;28;20510;-76
2022/02/23 00:40:09;;;;;;;12.98;4.75;;;6.10;83.50;;;;;;4950326;28;20284;-76
2022/02/23 00:42:35;;;;;;;13.70;4.50;;;6.00;83.50;;;;;;4946478;28;20042;-76
2022/02/23 00:45:01;;;;;;;17.77;6.50;;;6.00;83.70;;;;;;4957113;28;20051;-77
2022/02/23 00:47:27;;;;;;;19.92;6.72;;;6.00;83.70;;;;;;4949364;28;20074;-77
2022/02/23 00:49:53;;;;;;;13.10;6.50;;;5.90;83.80;;;;;;4952911;28;20039;-76
2022/02/23 00:52:19;;;;;;;15.48;6.60;;;5.90;83.80;;;;;;4945955;28;20118;-76
2022/02/23 00:54:45;;;;;;;18.55;10.38;;;5.90;83.90;;;;;;4955665;28;20039;-76
2022/02/23 00:57:13;;;;;;;21.45;10.77;;;5.80;84.10;;;;;;4947061;28;20046;-76
2022/02/23 00:59:40;;;;;;;19.45;11.20;;;5.80;84.30;;;;;;4949701;28;20376;-77
2022/02/23 01:02:06;;;;;;;24.40;12.40;;;5.70;84.40;;;;;;4960597;28;20038;-77
2022/02/23 01:04:32;;;;;;;25.75;14.05;;;5.70;84.50;;;;;;4942302;28;20049;-76
2022/02/23 01:06:58;;;;;;;21.52;13.75;;;5.70;84.70;;;;;;4941494;28;20044;-76
2022/02/23 01:09:23;;;;;;;24.30;14.48;;;5.70;84.80;;;;;;4940141;28;20939;-76
2022/02/23 01:11:49;;;;;;;21.75;13.70;;;5.80;84.70;;;;;;4946280;28;20114;-77
2022/02/23 01:14:15;;;;;;;20.67;12.55;;;5.70;84.70;;;;;;4950134;28;20443;-76
2022/02/23 01:16:41;;;;;;;23.05;12.02;;;5.60;84.80;;;;;;4953772;28;20505;-77
2022/02/23 01:19:07;;;;;;;19.85;10.82;;;5.60;85.00;;;;;;4948264;28;20111;-76
2022/02/23 01:21:33;;;;;;;23.33;12.20;;;5.60;85.20;;;;;;4942244;28;20031;-76
2022/02/23 01:23:58;;;;;;;19.83;10.82;;;5.60;85.10;;;;;;4947276;28;20114;-76
2022/02/23 01:26:24;;;;;;;19.95;10.70;;;5.60;85.20;;;;;;4942225;28;20164;-76
2022/02/23 01:28:50;;;;;;;20.02;9.85;;;5.60;85.40;;;;;;4946271;28;20551;-77
2022/02/23 01:31:16;;;;;;;20.58;10.00;;;5.50;85.40;;;;;;4947490;28;20352;-76
2022/02/23 01:33:41;;;;;;;17.67;9.25;;;5.50;85.50;;;;;;4941786;28;20040;-76
2022/02/23 01:36:08;;;;;;;19.40;8.57;;;5.40;85.70;;;;;;4955187;28;20031;-76
2022/02/23 01:38:34;;;;;;;19.95;9.02;;;5.40;85.80;;;;;;4953497;28;20046;-76
2022/02/23 01:41:01;;;;;;;20.42;8.88;;;5.40;86.00;;;;;;4949260;28;20035;-76
2022/02/23 01:43:28;;;;;;;18.73;8.82;;;5.40;86.00;;;;;;4947327;28;20078;-76
2022/02/23 01:45:54;;;;;;;14.70;7.88;;;5.40;86.10;;;;;;4951631;28;20031;-75
2022/02/23 01:48:20;;;;;;;16.50;7.93;;;5.40;86.20;;;;;;4936901;28;20040;-76
2022/02/23 01:50:46;;;;;;;22.42;7.93;;;5.40;86.10;;;;;;4962879;28;20035;-75
2022/02/23 01:53:14;;;;;;;16.67;8.20;;;5.40;86.10;;;;;;4940491;28;20031;-76
2022/02/23 01:55:39;;;;;;;17.27;7.38;;;5.30;86.20;;;;;;4940572;28;20027;-76
2022/02/23 01:58:06;;;;;;;17.35;6.60;;;5.30;86.30;;;;;;4950591;28;20034;-76
2022/02/23 02:00:32;;;;;;;14.10;6.90;;;5.30;86.30;;;;;;4960297;28;20059;-77
2022/02/23 02:02:58;;;;;;;18.08;10.07;;;5.20;86.30;;;;;;4950536;28;20118;-76
2022/02/23 02:05:24;;;;;;;19.35;8.82;;;5.20;86.30;;;;;;4955616;28;20517;-76
2022/02/23 02:07:49;;;;;;;18.45;9.10;;;5.10;86.40;;;;;;4942817;28;20411;-76
2022/02/23 02:10:15;;;;;;;19.63;7.80;;;5.10;86.50;;;;;;4956236;28;20039;-77
2022/02/23 02:12:41;;;;;;;16.00;6.50;;;5.10;86.60;;;;;;4947006;28;20034;-76
2022/02/23 02:15:07;;;;;;;18.45;6.45;;;5.10;86.80;;;;;;4942337;28;20098;-77
2022/02/23 02:17:33;;;;;;;15.68;6.60;;;5.00;86.90;;;;;;4944287;28;20045;-77
2022/02/23 02:19:59;;;;;;;19.10;8.65;;;5.00;87.00;;;;;;4948171;28;20467;-77
2022/02/23 02:22:28;;;;;;;22.13;9.73;;;5.00;87.10;;;;;;4944243;28;20039;-77
2022/02/23 02:24:56;;;;;;;22.30;11.02;;;5.00;87.20;;;;;;4953669;28;20039;-77
2022/02/23 02:27:22;;;;;;;21.88;9.52;;;5.00;87.20;;;;;;4943110;28;20550;-76
2022/02/23 02:29:47;;;;;;;17.52;7.82;;;5.00;87.30;;;;;;4973471;28;20125;-76
2022/02/23 02:32:14;;;;;;;17.90;9.40;;;4.90;87.30;;;;;;4967603;28;20125;-77
2022/02/23 02:34:40;;;;;;;17.20;8.05;;;5.00;87.30;;;;;;4930518;28;20031;-76
2022/02/23 02:37:07;;;;;;;20.27;9.00;;;4.90;87.40;;;;;;4954160;28;20066;-77
2022/02/23 02:39:34;;;;;;;17.80;8.70;;;4.90;87.50;;;;;;4936849;28;20094;-77
2022/02/23 02:42:01;;;;;;;21.80;8.57;;;4.90;87.40;;;;;;4943432;28;20027;-77
2022/02/23 02:44:27;;;;;;;22.83;9.48;;;4.90;87.60;;;;;;4951022;28;20124;-77
2022/02/23 02:46:52;;;;;;;23.75;8.93;;;4.80;87.70;;;;;;4951061;28;20051;-76
2022/02/23 02:49:18;;;;;;;24.80;9.32;;;4.90;87.70;;;;;;4949664;28;20089;-76
2022/02/23 02:51:45;;;;;;;19.02;10.02;;;4.80;87.60;;;;;;4957351;28;20019;-77
2022/02/23 02:54:11;;;;;;;20.92;9.27;;;4.80;87.60;;;;;;4933951;28;20039;-76
2022/02/23 02:56:38;;;;;;;26.58;11.38;;;4.80;87.70;;;;;;4954715;28;20034;-76
2022/02/23 02:59:05;;;;;;;23.05;9.55;;;4.80;87.80;;;;;;4949783;28;20035;-76
2022/02/23 03:01:32;;;;;;;21.58;9.00;;;4.70;87.80;;;;;;4947870;28;20035;-76
2022/02/23 03:03:58;;;;;;;22.38;9.35;;;4.70;87.90;;;;;;4948934;28;20039;-75
2022/02/23 03:06:24;;;;;;;16.33;8.55;;;4.70;87.90;;;;;;4951358;28;20023;-77
2022/02/23 03:08:51;;;;;;;24.05;10.40;;;4.70;87.80;;;;;;4951859;28;20023;-77
2022/02/23 03:11:17;;;;;;;24.83;14.57;;;4.70;87.80;;;;;;4958927;28;20045;-76
2022/02/23 03:13:43;;;;;;;34.35;21.65;;;4.60;87.90;;;;;;4944632;28;20057;-76
2022/02/23 03:16:11;;;;;;;26.65;15.98;;;4.60;87.90;;;;;;4954124;28;20051;-76
2022/02/23 03:18:37;;;;;;;29.52;18.30;;;4.60;88.10;;;;;;4944331;28;20035;-76
2022/02/23 03:21:04;;;;;;;32.63;20.50;;;4.60;88.10;;;;;;4945125;28;20041;-76
2022/02/23 03:23:29;;;;;;;28.67;17.92;;;4.40;88.00;;;;;;4939640;28;20035;-77
2022/02/23 03:25:55;;;;;;;27.20;14.88;;;4.40;88.10;;;;;;4953684;28;20129;-77
2022/02/23 03:28:21;;;;;;;24.92;12.70;;;4.40;88.10;;;;;;4946676;28;20342;-77
2022/02/23 03:30:47;;;;;;;22.73;13.10;;;4.40;88.20;;;;;;4946486;28;20480;-77
2022/02/23 03:33:13;;;;;;;28.75;16.27;;;4.40;88.30;;;;;;4949711;28;20363;-76
2022/02/23 03:35:40;;;;;;;26.48;16.38;;;4.30;88.20;;;;;;4953847;28;20592;-77
2022/02/23 03:38:07;;;;;;;24.88;12.57;;;4.40;88.20;;;;;;4952244;28;20473;-77
2022/02/23 03:40:33;;;;;;;27.88;13.40;;;4.20;88.30;;;;;;4944352;28;20428;-76
2022/02/23 03:43:01;;;;;;;25.35;12.88;;;4.30;88.40;;;;;;4946522;28;20071;-76
2022/02/23 03:45:27;;;;;;;30.98;15.75;;;4.20;88.40;;;;;;4951990;28;20596;-76
2022/02/23 03:47:53;;;;;;;28.27;16.75;;;4.20;88.40;;;;;;4942484;28;20459;-76
2022/02/23 03:50:19;;;;;;;27.60;17.48;;;4.10;88.40;;;;;;4943176;28;20040;-76
2022/02/23 03:52:45;;;;;;;28.77;16.77;;;4.10;88.50;;;;;;4942555;28;20023;-75
2022/02/23 03:55:11;;;;;;;26.23;16.58;;;4.10;88.50;;;;;;4943631;28;20118;-76
2022/02/23 03:57:37;;;;;;;27.73;14.45;;;4.00;88.60;;;;;;4952474;28;20035;-75
2022/02/23 04:00:04;;;;;;;26.50;15.25;;;4.00;88.60;;;;;;4943478;28;20409;-76
2022/02/23 04:02:30;;;;;;;23.42;14.40;;;4.00;88.60;;;;;;4946915;28;20493;-77
2022/02/23 04:04:56;;;;;;;22.85;14.90;;;3.90;88.60;;;;;;4957641;28;20714;-76
2022/02/23 04:07:22;;;;;;;20.17;13.57;;;3.80;88.70;;;;;;4946273;28;20031;-76
2022/02/23 04:09:48;;;;;;;26.95;14.88;;;3.80;88.70;;;;;;4942721;28;20035;-77
2022/02/23 04:12:15;;;;;;;30.00;18.50;;;3.80;88.90;;;;;;4942525;28;20032;-76
2022/02/23 04:14:41;;;;;;;19.95;12.30;;;3.80;88.90;;;;;;4944448;28;20118;-76
2022/02/23 04:17:07;;;;;;;18.83;10.50;;;3.70;89.00;;;;;;4952876;28;20047;-75
2022/02/23 04:19:33;;;;;;;23.15;12.98;;;3.70;89.00;;;;;;4949915;28;20039;-76
2022/02/23 04:21:58;;;;;;;22.30;11.73;;;3.70;89.10;;;;;;4947704;28;20491;-77
2022/02/23 04:24:24;;;;;;;16.75;9.88;;;3.70;89.10;;;;;;4948892;28;20042;-77
2022/02/23 04:26:50;;;;;;;18.15;9.05;;;3.70;89.20;;;;;;4952905;28;20081;-77
2022/02/23 04:29:15;;;;;;;20.10;8.15;;;3.70;89.20;;;;;;4941095;28;20035;-77
2022/02/23 04:31:43;;;;;;;21.20;8.35;;;3.70;89.20;;;;;;4953886;28;20110;-76
2022/02/23 04:34:09;;;;;;;21.25;10.70;;;3.70;89.30;;;;;;4942101;28;20105;-77
2022/02/23 04:36:35;;;;;;;23.65;11.55;;;3.60;89.20;;;;;;4944566;28;20031;-76
2022/02/23 04:39:02;;;;;;;23.70;12.93;;;3.60;89.30;;;;;;4948974;28;20038;-77
2022/02/23 04:41:27;;;;;;;25.98;16.50;;;3.60;89.20;;;;;;4943001;28;20038;-76
2022/02/23 04:43:53;;;;;;;23.70;15.23;;;3.60;89.30;;;;;;4958969;28;20569;-77
2022/02/23 04:46:19;;;;;;;21.88;14.73;;;3.60;89.30;;;;;;4959068;28;20042;-77
2022/02/23 04:48:45;;;;;;;21.95;13.88;;;3.60;89.30;;;;;;4942567;28;20421;-76
2022/02/23 04:51:12;;;;;;;18.63;10.50;;;3.60;89.40;;;;;;4941569;28;20031;-77
2022/02/23 04:53:38;;;;;;;18.35;9.50;;;3.60;89.40;;;;;;4942911;28;20126;-76
2022/02/23 04:56:05;;;;;;;18.95;10.23;;;3.60;89.40;;;;;;4945090;28;20195;-76
2022/02/23 04:58:31;;;;;;;20.30;10.75;;;3.50;89.50;;;;;;4940106;28;20392;-76
2022/02/23 05:00:58;;;;;;;17.02;9.90;;;3.50;89.50;;;;;;4947296;28;20225;-76
2022/02/23 05:03:24;;;;;;;24.00;10.65;;;3.50;89.50;;;;;;4941259;28;20072;-76
2022/02/23 05:05:50;;;;;;;15.10;9.30;;;3.50;89.50;;;;;;4944227;28;20039;-76
2022/02/23 05:08:19;;;;;;;21.00;8.80;;;3.50;89.50;;;;;;4949992;28;20031;-76
2022/02/23 05:10:45;;;;;;;15.27;7.47;;;3.50;89.60;;;;;;4954874;28;20048;-76
2022/02/23 05:13:11;;;;;;;20.25;9.32;;;3.50;89.50;;;;;;4954270;28;20464;-76
2022/02/23 05:15:37;;;;;;;19.90;7.68;;;3.50;89.50;;;;;;4948673;28;20960;-76
2022/02/23 05:18:07;;;;;;;16.52;7.40;;;3.50;89.60;;;;;;4943599;28;20272;-76
2022/02/23 05:20:34;;;;;;;14.27;6.65;;;3.40;89.60;;;;;;4931493;28;20110;-76
2022/02/23 05:23:00;;;;;;;15.68;7.40;;;3.50;89.70;;;;;;4934438;28;20039;-76
2022/02/23 05:25:26;;;;;;;16.35;7.55;;;3.50;89.70;;;;;;4933187;28;20057;-76
2022/02/23 05:27:52;;;;;;;14.25;7.43;;;3.40;89.70;;;;;;4937504;28;20635;-76
2022/02/23 05:30:18;;;;;;;18.67;8.98;;;3.40;89.80;;;;;;4931547;28;20045;-76
2022/02/23 05:32:44;;;;;;;21.90;8.80;;;3.40;89.80;;;;;;4932020;28;20059;-76
2022/02/23 05:35:10;;;;;;;18.60;8.23;;;3.40;89.80;;;;;;4926454;28;20135;-76
2022/02/23 05:37:36;;;;;;;17.00;8.82;;;3.40;89.80;;;;;;4923009;28;20040;-75
2022/02/23 05:40:04;;;;;;;20.13;9.15;;;3.40;89.80;;;;;;4929965;28;20063;-76
2022/02/23 05:42:30;;;;;;;23.13;10.02;;;3.40;89.70;;;;;;4935224;28;20495;-76
2022/02/23 05:44:55;;;;;;;24.63;10.13;;;3.40;89.80;;;;;;4933691;28;20147;-76
2022/02/23 05:47:21;;;;;;;21.67;10.77;;;3.40;89.80;;;;;;4932756;28;20063;-76
2022/02/23 05:49:47;;;;;;;21.83;8.63;;;3.30;89.70;;;;;;4940636;28;20027;-77
2022/02/23 05:52:13;;;;;;;18.60;8.45;;;3.30;89.60;;;;;;4941462;28;20035;-77
2022/02/23 05:54:40;;;;;;;16.92;8.25;;;3.30;89.70;;;;;;4951502;28;20114;-76
2022/02/23 05:57:05;;;;;;;18.75;7.80;;;3.30;89.70;;;;;;4932032;28;20857;-77
2022/02/23 05:59:31;;;;;;;22.60;8.43;;;3.30;89.90;;;;;;4930466;28;20030;-76
2022/02/23 06:01:57;;;;;;;17.70;8.00;;;3.30;89.90;;;;;;4942635;28;20050;-76
2022/02/23 06:04:22;;;;;;;17.90;8.32;;;3.30;89.80;;;;;;4934445;28;20083;-76
2022/02/23 06:06:48;;;;;;;22.98;9.48;;;3.40;89.90;;;;;;4935941;28;20062;-76
2022/02/23 06:09:14;;;;;;;24.08;10.75;;;3.40;89.80;;;;;;4936779;28;20032;-76
2022/02/23 06:11:40;;;;;;;19.85;10.20;;;3.30;89.80;;;;;;4930133;28;20051;-76
2022/02/23 06:14:06;;;;;;;24.63;10.07;;;3.30;89.80;;;;;;4928327;28;20032;-76
2022/02/23 06:16:32;;;;;;;17.23;9.70;;;3.30;89.80;;;;;;4941151;28;20043;-76
2022/02/23 06:18:58;;;;;;;23.83;11.50;;;3.30;89.90;;;;;;4934184;28;20036;-75
2022/02/23 06:21:24;;;;;;;18.25;8.95;;;3.20;89.80;;;;;;4935873;28;20032;-76
2022/02/23 06:23:51;;;;;;;19.83;9.75;;;3.20;89.90;;;;;;4943449;28;21382;-77
2022/02/23 06:26:17;;;;;;;21.42;8.60;;;3.10;89.90;;;;;;4958326;28;20073;-76
2022/02/23 06:28:43;;;;;;;20.90;10.15;;;3.10;90.00;;;;;;4960653;28;20060;-76
2022/02/23 06:31:09;;;;;;;19.60;9.55;;;3.10;90.10;;;;;;4961585;28;20035;-77
2022/02/23 06:33:37;;;;;;;18.08;10.13;;;3.10;90.10;;;;;;4955327;28;20048;-75
2022/02/23 06:36:03;;;;;;;20.02;10.35;;;3.10;90.10;;;;;;4972755;28;20185;-79
2022/02/23 06:38:29;;;;;;;19.60;11.18;;;3.10;90.10;;;;;;4966562;28;20474;-77
2022/02/23 06:40:57;;;;;;;23.77;10.65;;;3.10;90.10;;;;;;4957123;28;20050;-76
2022/02/23 06:43:23;;;;;;;21.85;11.05;;;3.10;90.00;;;;;;4945251;28;20459;-74
2022/02/23 06:45:51;;;;;;;17.58;11.40;;;3.10;90.10;;;;;;4960459;28;20031;-74
2022/02/23 06:48:18;;;;;;;21.80;11.70;;;3.10;90.20;;;;;;4960387;28;20267;-74
2022/02/23 06:50:44;;;;;;;20.83;11.00;;;3.10;90.20;;;;;;4963165;28;20031;-75
2022/02/23 06:53:12;;;;;;;19.70;10.60;;;3.10;90.20;;;;;;4955548;28;20031;-75
2022/02/23 06:55:39;;;;;;;25.95;11.98;;;3.20;90.30;;;;;;4951786;28;20043;-74
2022/02/23 06:58:05;;;;;;;23.05;11.32;;;3.20;90.30;;;;;;4931527;28;20122;-74
2022/02/23 07:00:31;;;;;;;23.38;10.90;;;3.20;90.20;;;;;;4954315;28;20045;-75
2022/02/23 07:02:57;;;;;;;26.73;12.00;;;3.20;90.20;;;;;;4947700;28;20391;-76
2022/02/23 07:05:23;;;;;;;22.23;11.75;;;3.30;90.10;;;;;;4942253;28;20094;-74
2022/02/23 07:07:48;;;;;;;22.05;11.35;;;3.30;89.90;;;;;;4940530;28;20038;-74
2022/02/23 07:10:25;;;;;;;20.92;11.52;;;3.30;89.80;;;;;;4937143;28;20039;-74
2022/02/23 07:12:52;;;;;;;22.88;10.73;;;3.30;89.80;;;;;;4939357;28;20109;-75
2022/02/23 07:15:18;;;;;;;24.05;11.85;;;3.40;89.90;;;;;;4944105;28;20023;-75
2022/02/23 07:17:45;;;;;;;24.65;10.25;;;3.40;89.80;;;;;;4953924;28;20031;-74
2022/02/23 07:20:11;;;;;;;27.05;11.60;;;3.40;89.90;;;;;;4957432;28;20027;-77
2022/02/23 07:22:37;;;;;;;27.17;12.63;;;3.50;89.90;;;;;;4950783;28;20580;-75
2022/02/23 07:25:08;;;;;;;31.25;14.07;;;3.50;90.00;;;;;;4953747;28;20101;-74
2022/02/23 07:27:35;;;;;;;24.80;12.82;;;3.60;89.90;;;;;;4961023;28;20063;-76
2022/02/23 07:30:05;;;;;;;26.52;12.45;;;3.60;89.80;;;;;;4944089;28;20085;-75
2022/02/23 07:32:32;;;;;;;28.92;13.35;;;3.60;89.80;;;;;;4954719;28;20027;-75
2022/02/23 07:34:58;;;;;;;28.38;11.13;;;3.70;89.80;;;;;;4944083;28;20131;-75
2022/02/23 07:37:24;;;;;;;25.42;10.70;;;3.70;89.70;;;;;;4945460;28;20114;-74
2022/02/23 07:39:52;;;;;;;24.67;11.38;;;3.70;89.70;;;;;;4945418;28;20034;-75
2022/02/23 07:42:19;;;;;;;21.85;9.07;;;3.80;89.50;;;;;;4944177;28;20047;-76
2022/02/23 07:44:46;;;;;;;22.70;9.50;;;3.90;89.50;;;;;;4957833;28;20422;-74
2022/02/23 07:47:12;;;;;;;19.48;8.90;;;3.90;89.30;;;;;;4947123;28;20150;-74
2022/02/23 07:49:38;;;;;;;24.60;9.10;;;4.00;89.30;;;;;;4944369;28;20103;-75
2022/02/23 07:52:04;;;;;;;25.45;9.63;;;4.00;89.20;;;;;;4944492;28;20124;-76
2022/02/23 07:54:30;;;;;;;31.23;10.02;;;4.10;89.10;;;;;;4948340;28;20040;-75
2022/02/23 07:56:56;;;;;;;27.90;9.57;;;4.10;89.00;;;;;;4947325;28;20027;-74
2022/02/23 07:59:22;;;;;;;25.23;10.50;;;4.20;88.90;;;;;;4953659;28;20039;-74
2022/02/23 08:01:49;;;;;;;19.13;9.07;;;4.30;88.80;;;;;;4936756;28;20027;-75
2022/02/23 08:04:15;;;;;;;24.10;10.25;;;4.40;88.70;;;;;;4928940;28;20563;-75
2022/02/23 08:06:41;;;;;;;21.85;8.55;;;4.40;88.40;;;;;;4934282;28;20122;-76
2022/02/23 08:09:08;;;;;;;21.45;9.45;;;4.50;88.30;;;;;;4934143;28;20039;-75
2022/02/23 08:11:36;;;;;;;24.00;9.10;;;4.60;88.20;;;;;;4931114;28;20051;-74
2022/02/23 08:14:04;;;;;;;23.60;8.88;;;4.70;88.10;;;;;;4931552;28;20059;-75
2022/02/23 08:19:35;;;;;;;23.73;10.35;;;4.80;87.90;;;;;;4928702;28;20038;-74
2022/02/23 08:22:13;;;;;;;28.63;9.57;;;4.90;87.70;;;;;;4934834;28;20125;-75
2022/02/23 08:24:49;;;;;;;22.88;8.73;;;5.10;87.30;;;;;;4935133;28;20916;-75
2022/02/23 08:27:15;;;;;;;22.27;10.30;;;5.10;87.20;;;;;;4936445;28;20126;-75
2022/02/23 08:29:41;;;;;;;25.15;9.45;;;5.20;87.00;;;;;;4937904;28;20130;-75
2022/02/23 08:32:10;;;;;;;22.85;10.00;;;5.40;86.90;;;;;;4937408;28;20047;-76
2022/02/23 08:34:37;;;;;;;27.55;9.65;;;5.50;86.60;;;;;;4937894;28;20098;-77
2022/02/23 08:37:03;;;;;;;24.00;9.68;;;5.60;86.30;;;;;;4933823;28;20050;-75
2022/02/23 08:39:36;;;;;;;26.73;9.60;;;5.80;86.10;;;;;;4932636;28;20611;-75
2022/02/23 08:42:04;;;;;;;47.35;12.30;;;5.90;85.60;;;;;;4951147;28;20628;-76
2022/02/23 08:44:30;;;;;;;128.77;26.48;;;6.10;85.50;;;;;;4947966;28;20044;-76
2022/02/23 08:46:56;;;;;;;64.57;15.82;;;6.30;85.40;;;;;;4949607;28;20047;-77
2022/02/23 08:49:22;;;;;;;37.70;11.20;;;6.40;84.60;;;;;;4931354;28;20496;-76
2022/02/23 08:51:48;;;;;;;26.42;10.15;;;6.60;83.80;;;;;;4931855;28;20090;-77
2022/02/23 08:54:15;;;;;;;26.08;9.60;;;6.80;83.50;;;;;;4946059;28;20043;-76
2022/02/23 08:56:42;;;;;;;26.95;9.68;;;7.00;82.90;;;;;;4935361;28;20041;-76
2022/02/23 08:59:08;;;;;;;25.85;10.38;;;7.20;82.50;;;;;;4932498;28;21304;-76
2022/02/23 09:01:34;;;;;;;31.58;11.05;;;7.30;81.90;;;;;;4937010;28;20035;-77
2022/02/23 09:04:02;;;;;;;21.10;9.93;;;7.60;81.90;;;;;;4949707;28;20843;-76
2022/02/23 09:06:29;;;;;;;26.30;9.82;;;7.70;81.00;;;;;;4946582;28;20059;-75
2022/02/23 09:08:54;;;;;;;23.17;10.07;;;7.80;80.50;;;;;;4944166;28;20046;-74
2022/02/23 09:11:20;;;;;;;26.45;9.13;;;7.90;80.10;;;;;;4944534;28;20034;-78
2022/02/23 09:13:46;;;;;;;21.88;9.07;;;8.10;79.80;;;;;;4937798;28;20039;-75
2022/02/23 09:16:12;;;;;;;23.60;8.63;;;8.20;80.00;;;;;;4944308;28;20070;-75
2022/02/23 09:18:38;;;;;;;25.50;9.95;;;8.40;79.50;;;;;;4945203;28;20038;-74
2022/02/23 09:21:08;;;;;;;27.65;10.38;;;8.50;79.40;;;;;;4944879;28;20039;-73
2022/02/23 09:23:34;;;;;;;23.23;9.55;;;8.70;79.20;;;;;;4935742;28;20090;-74
2022/02/23 09:26:00;;;;;;;21.50;8.68;;;8.80;78.20;;;;;;4959052;28;20047;-73
2022/02/23 09:28:26;;;;;;;24.10;8.55;;;8.90;78.00;;;;;;4946728;28;20392;-73
2022/02/23 09:30:51;;;;;;;22.90;9.02;;;9.00;78.00;;;;;;4945595;28;20050;-73
2022/02/23 09:33:17;;;;;;;22.73;8.90;;;9.10;77.50;;;;;;4940583;28;20122;-74
2022/02/23 09:35:49;;;;;;;23.52;9.00;;;9.10;77.60;;;;;;4953205;28;20057;-73
2022/02/23 09:38:16;;;;;;;22.15;8.80;;;9.20;77.20;;;;;;4946380;28;20110;-73
2022/02/23 09:40:48;;;;;;;26.33;9.45;;;9.40;77.50;;;;;;4948438;28;20325;-73
2022/02/23 09:43:14;;;;;;;27.50;9.20;;;9.50;77.00;;;;;;4939901;28;20032;-72
2022/02/23 09:45:43;;;;;;;22.42;9.25;;;9.60;76.90;;;;;;4945788;28;20142;-73
2022/02/23 09:48:11;;;;;;;24.45;8.70;;;9.70;76.70;;;;;;4940782;28;20038;-74
2022/02/23 09:50:36;;;;;;;22.38;7.90;;;9.80;76.10;;;;;;4941655;28;20028;-72
2022/02/23 09:53:02;;;;;;;21.13;8.93;;;9.90;76.30;;;;;;4947128;28;20678;-76
2022/02/23 09:55:29;;;;;;;28.48;9.60;;;10.00;75.60;;;;;;4941026;28;20059;-73
2022/02/23 09:57:55;;;;;;;27.65;8.88;;;10.10;75.70;;;;;;4949460;28;20558;-75
2022/02/23 10:00:21;;;;;;;24.88;8.88;;;10.20;75.20;;;;;;4941534;28;20031;-74
2022/02/23 10:02:47;;;;;;;25.85;9.05;;;10.30;74.80;;;;;;4950934;28;20367;-75
2022/02/23 10:05:16;;;;;;;27.50;8.27;;;10.40;74.90;;;;;;4951505;28;20044;-74
2022/02/23 10:07:42;;;;;;;23.80;8.73;;;10.50;74.70;;;;;;4949060;28;20333;-74
2022/02/23 10:10:09;;;;;;;22.40;8.38;;;10.60;74.10;;;;;;4941277;28;20042;-74
2022/02/23 10:12:37;;;;;;;22.27;8.77;;;10.60;74.20;;;;;;4949509;28;20030;-75
2022/02/23 10:15:07;;;;;;;19.88;7.97;;;10.80;74.30;;;;;;4945126;28;20027;-75
2022/02/23 10:17:43;;;;;;;22.55;8.63;;;10.80;73.80;;;;;;4936458;28;20109;-75
2022/02/23 10:20:34;;;;;;;21.85;8.48;;;10.90;74.30;;;;;;4957520;28;20042;-79
2022/02/23 10:23:20;;;;;;;19.95;8.32;;;11.00;73.80;;;;;;4953572;28;20242;-75
2022/02/23 10:26:02;;;;;;;20.38;8.15;;;11.10;72.90;;;;;;4950320;28;20038;-75
2022/02/23 10:28:29;;;;;;;20.55;7.90;;;11.20;72.90;;;;;;4948856;28;20118;-74
2022/02/23 10:31:01;;;;;;;19.10;7.43;;;11.10;72.20;;;;;;4962806;28;20414;-74
2022/02/23 10:33:27;;;;;;;26.58;8.40;;;11.20;72.60;;;;;;4953159;28;20027;-74
2022/02/23 10:36:00;;;;;;;27.88;8.10;;;11.20;72.30;;;;;;4947219;28;20073;-76
2022/02/23 10:38:28;;;;;;;23.60;8.10;;;11.40;72.20;;;;;;4945739;28;20043;-75
2022/02/23 10:40:59;;;;;;;22.30;8.10;;;11.30;72.30;;;;;;4947614;28;20042;-72
2022/02/23 10:43:37;;;;;;;29.25;8.85;;;11.40;71.10;;;;;;4946269;28;20035;-72
2022/02/23 10:46:05;;;;;;;22.88;7.00;;;11.50;71.10;;;;;;4950793;28;20058;-71
2022/02/23 10:48:39;;;;;;;24.52;7.63;;;11.40;71.00;;;;;;4942018;28;20073;-71
2022/02/23 10:51:17;;;;;;;26.23;8.60;;;11.50;71.30;;;;;;4950661;28;20494;-72
2022/02/23 10:53:43;;;;;;;19.92;7.68;;;11.50;71.30;;;;;;4932335;28;20466;-74
2022/02/23 10:56:30;;;;;;;20.88;7.00;;;11.50;70.70;;;;;;4941337;28;20480;-71
2022/02/23 10:59:11;;;;;;;25.88;6.80;;;11.60;70.00;;;;;;4952307;28;20586;-72
2022/02/23 11:01:40;;;;;;;19.40;5.82;;;11.80;69.00;;;;;;4960314;28;20113;-73
2022/02/23 11:04:07;;;;;;;20.30;5.88;;;11.90;68.60;;;;;;4940273;28;20075;-72
2022/02/23 11:06:34;;;;;;;16.25;5.60;;;12.00;67.90;;;;;;4955549;28;20029;-75
2022/02/23 11:09:00;;;;;;;19.40;5.30;;;12.00;67.90;;;;;;4955534;28;20551;-73
2022/02/23 11:11:28;;;;;;;20.73;5.60;;;12.20;67.30;;;;;;4932146;28;20073;-72
2022/02/23 11:14:01;;;;;;;20.35;5.68;;;12.10;66.80;;;;;;4946642;28;20475;-74
2022/02/23 11:16:31;;;;;;;19.63;5.90;;;12.10;67.00;;;;;;4941135;28;20054;-72
2022/02/23 11:18:58;;;;;;;20.35;5.60;;;12.10;66.70;;;;;;4940266;28;20043;-71
2022/02/23 11:21:28;;;;;;;19.05;5.82;;;12.20;66.40;;;;;;4941628;28;20511;-71
2022/02/23 11:23:58;;;;;;;20.45;5.63;;;12.10;66.40;;;;;;4940951;28;20050;-73
2022/02/23 11:26:29;;;;;;;19.20;6.05;;;12.20;66.90;;;;;;4943535;28;20036;-71
2022/02/23 11:29:06;;;;;;;20.52;6.25;;;12.40;66.10;;;;;;4943656;28;20042;-72
2022/02/23 11:31:36;;;;;;;19.55;6.72;;;12.50;65.60;;;;;;4942351;28;20513;-72
2022/02/23 11:34:04;;;;;;;15.93;5.70;;;12.50;64.60;;;;;;4932785;28;20495;-71
2022/02/23 11:36:34;;;;;;;16.25;5.93;;;12.40;64.00;;;;;;4933911;28;20110;-72
2022/02/23 11:39:04;;;;;;;12.88;4.57;;;12.40;63.20;;;;;;4933487;28;20047;-72
2022/02/23 11:41:38;;;;;;;15.90;4.00;;;12.60;63.40;;;;;;4930530;28;20431;-70
2022/02/23 11:44:16;;;;;;;14.40;4.60;;;12.50;61.80;;;;;;4947461;28;20043;-71
2022/02/23 11:46:54;;;;;;;16.73;4.28;;;12.50;62.20;;;;;;4936738;28;20098;-71
2022/02/23 11:49:31;;;;;;;17.48;4.30;;;12.50;61.50;;;;;;4934972;28;20039;-70
2022/02/23 11:52:17;;;;;;;15.75;4.45;;;12.60;61.90;;;;;;4935495;28;20050;-70
2022/02/23 11:54:55;;;;;;;17.50;4.05;;;12.60;61.20;;;;;;4948153;28;20086;-72
2022/02/23 11:57:51;;;;;;;14.95;4.60;;;12.80;61.80;;;;;;4935848;28;20043;-70
2022/02/23 12:00:29;;;;;;;15.68;4.68;;;12.90;61.60;;;;;;4923002;28;20043;-70
2022/02/23 12:03:00;;;;;;;20.60;5.10;;;12.90;61.80;;;;;;4950358;28;20051;-75
2022/02/23 12:05:34;;;;;;;13.15;4.13;;;13.00;60.50;;;;;;4932874;28;20507;-71
2022/02/23 12:08:00;;;;;;;14.75;4.47;;;13.00;60.20;;;;;;4930354;28;20070;-74
2022/02/23 12:10:30;;;;;;;13.65;4.35;;;12.90;60.30;;;;;;4966002;28;20031;-72
2022/02/23 12:12:57;;;;;;;15.38;3.67;;;13.10;60.60;;;;;;4947787;28;20131;-71
2022/02/23 12:15:34;;;;;;;16.17;5.03;;;13.00;59.00;;;;;;4938567;28;20091;-72
2022/02/23 12:18:12;;;;;;;16.02;4.15;;;13.00;58.70;;;;;;4938379;28;20125;-72
2022/02/23 12:20:38;;;;;;;68.15;11.70;;;13.10;58.50;;;;;;4931023;28;20318;-71
2022/02/23 12:23:22;;;;;;;14.90;3.47;;;13.10;60.00;;;;;;4930869;28;20375;-73
2022/02/23 12:25:51;;;;;;;13.93;3.72;;;13.20;58.00;;;;;;4941526;28;20039;-74
2022/02/23 12:28:19;;;;;;;12.40;3.33;;;13.20;57.10;;;;;;4935068;28;20118;-70
2022/02/23 12:30:55;;;;;;;14.18;3.88;;;13.10;56.80;;;;;;4942275;28;20529;-73
2022/02/23 12:33:22;;;;;;;9.30;3.13;;;13.10;57.50;;;;;;4931423;28;20059;-73
2022/02/23 12:35:49;;;;;;;10.73;2.88;;;13.10;56.60;;;;;;4937165;28;20039;-71
2022/02/23 12:38:22;;;;;;;13.40;3.42;;;13.20;56.10;;;;;;4933863;28;20035;-70
2022/02/23 12:40:51;;;;;;;15.93;3.83;;;13.00;57.00;;;;;;4935502;28;20412;-70
2022/02/23 12:43:18;;;;;;;14.73;3.55;;;12.80;57.90;;;;;;4933323;28;20043;-71
2022/02/23 12:45:48;;;;;;;14.10;3.72;;;12.80;58.30;;;;;;4952442;28;20052;-71